Terminal Aerodrome Forecast
Issued by NWS Amarillo, TX

Current Version | Previous Version | Text Only | Print | Product List | Glossary Off
Versions: 1 2 3 4 5 6 7 8 9 10 11 12 13 14 15 16 17 18 19 20

000
FTUS44 KAMA 232300
TAFDHT
TAF
KDHT 232327Z 2400/2424 17008KT P6SM FEW090
     FM241400 21013G22KT P6SM FEW100=

USA.gov is the U.S. government's official web portal to all federal, state and local government web resources and services.